Time;durP1;ratioP1;P1;durP2;ratioP2;P2;SDS_P1;SDS_P2;PMS_P1;PMS_P2;Temp;Humidity;BMP_temperature;BMP_pressure;BME280_temperature;BME280_humidity;BME280_pressure;Samples;Min_cycle;Max_cycle;Signal;HPM_P1;HPM_P2
2023/11/22 10:54:07;;;;;;;10.65;8.73;;;22.40;52.90;23.30;102982.00;;;;5065831;28;20394;-59
2023/11/22 10:56:56;;;;;;;11.77;7.57;;;22.20;51.80;23.20;102981.00;;;;5042913;28;20047;-61
2023/11/22 10:59:26;;;;;;;8.73;7.93;;;22.30;50.30;23.10;102983.00;;;;5039279;28;20041;-54
2023/11/22 11:01:53;;;;;;;9.43;8.20;;;22.20;49.30;23.00;102980.00;;;;5045675;28;20116;-52
2023/11/22 11:04:27;;;;;;;10.30;7.10;;;22.30;48.40;22.90;102975.00;;;;5027985;28;20037;-50
2023/11/22 11:06:58;;;;;;;7.43;6.82;;;22.20;47.20;22.80;102978.00;;;;5047402;28;20087;-50
2023/11/22 11:09:29;;;;;;;6.85;6.28;;;22.20;46.40;22.70;102970.00;;;;5043895;28;20040;-53
2023/11/22 11:11:57;;;;;;;6.68;6.28;;;22.10;45.80;22.60;102974.00;;;;5043944;28;20099;-60
2023/11/22 11:14:23;;;;;;;8.15;6.72;;;22.10;45.20;22.50;102976.00;;;;5044215;28;20044;-49
2023/11/22 11:16:54;;;;;;;7.55;6.88;;;22.00;44.60;22.50;102980.00;;;;5044399;28;20033;-48
2023/11/22 11:19:24;;;;;;;7.60;6.35;;;21.90;44.30;22.40;102984.00;;;;5042477;28;20036;-50
2023/11/22 11:21:50;;;;;;;6.65;5.65;;;21.90;44.00;22.30;102987.00;;;;5024147;28;20030;-55
2023/11/22 11:24:18;;;;;;;5.60;5.20;;;21.80;43.60;22.30;102993.00;;;;5044437;28;20037;-64
2023/11/22 11:26:52;;;;;;;5.55;5.13;;;21.80;43.20;22.30;102980.00;;;;5045032;28;20030;-58
2023/11/22 11:29:34;;;;;;;4.07;3.88;;;21.80;42.40;22.20;102983.00;;;;5033526;28;20150;-62
2023/11/22 11:32:02;;;;;;;5.32;4.88;;;21.70;42.10;22.20;102969.00;;;;5040702;28;20036;-54
2023/11/22 11:34:29;;;;;;;5.05;4.72;;;21.70;42.20;22.30;102964.00;;;;5043896;28;20148;-54
2023/11/22 11:36:56;;;;;;;5.90;5.38;;;21.70;41.90;22.30;102962.00;;;;5043600;28;20029;-56
2023/11/22 11:39:31;;;;;;;6.47;5.82;;;21.70;41.60;22.30;102950.00;;;;5043754;28;20026;-67
2023/11/22 11:42:13;;;;;;;6.45;6.00;;;21.60;41.20;22.30;102955.00;;;;5044597;28;20041;-67
2023/11/22 11:44:52;;;;;;;5.38;4.97;;;21.60;41.00;22.30;102963.00;;;;5045815;28;20041;-65
2023/11/22 11:47:18;;;;;;;6.43;5.88;;;21.60;40.80;22.30;102963.00;;;;5020306;28;20053;-64
2023/11/22 11:49:44;;;;;;;5.25;4.75;;;21.60;40.80;22.30;102948.00;;;;5051709;28;20037;-55
2023/11/22 11:52:10;;;;;;;5.55;4.22;;;21.60;40.30;22.20;102935.00;;;;5044362;28;20048;-65
2023/11/22 11:54:38;;;;;;;2.97;2.65;;;21.60;40.00;22.20;102936.00;;;;5046292;28;20037;-66
2023/11/22 11:57:06;;;;;;;3.15;3.00;;;21.60;39.60;22.20;102940.00;;;;5046007;28;20440;-60
2023/11/22 11:59:33;;;;;;;2.47;2.38;;;21.60;39.10;22.20;102944.00;;;;5040321;28;20021;-50
2023/11/22 12:01:59;;;;;;;4.63;3.63;;;21.60;38.90;22.20;102946.00;;;;5025565;28;20075;-51
2023/11/22 12:04:26;;;;;;;3.45;3.25;;;21.60;38.70;22.20;102936.00;;;;5034245;28;20536;-53
2023/11/22 12:06:52;;;;;;;4.78;4.00;;;21.60;38.60;22.20;102923.00;;;;5035873;28;20046;-57
2023/11/22 12:09:30;;;;;;;2.92;2.40;;;21.60;38.50;22.20;102937.00;;;;5044418;28;20068;-53
2023/11/22 12:12:01;;;;;;;2.10;2.00;;;21.60;37.80;22.20;102945.00;;;;5025208;28;20086;-55
2023/11/22 12:14:27;;;;;;;1.40;1.30;;;21.60;37.90;22.20;102950.00;;;;5030492;28;20043;-67
2023/11/22 12:16:54;;;;;;;2.05;1.95;;;21.60;37.50;22.20;102957.00;;;;5011467;28;20037;-51
2023/11/22 12:19:30;;;;;;;9.02;2.72;;;21.60;37.30;22.30;102962.00;;;;5030950;28;20026;-52
2023/11/22 12:21:57;;;;;;;6.05;3.35;;;21.70;36.90;22.30;102955.00;;;;5031105;28;20029;-56
2023/11/22 12:24:24;;;;;;;3.40;3.20;;;21.60;37.20;22.30;102948.00;;;;5023325;28;20663;-69
2023/11/22 12:26:50;;;;;;;3.90;3.60;;;21.70;37.20;22.30;102953.00;;;;5031243;28;20041;-63
2023/11/22 12:29:19;;;;;;;2.92;2.78;;;21.60;37.10;22.30;102956.00;;;;5030664;28;20061;-65
2023/11/22 12:31:50;;;;;;;2.33;2.13;;;21.70;36.90;22.40;102946.00;;;;5030742;28;20026;-56
2023/11/22 12:34:17;;;;;;;4.72;1.95;;;21.70;36.80;22.40;102941.00;;;;5029666;28;20041;-63
2023/11/22 12:36:45;;;;;;;4.85;2.05;;;21.70;36.40;22.40;102936.00;;;;5028171;28;20041;-65
2023/11/22 12:39:17;;;;;;;2.20;2.10;;;21.70;36.30;22.40;102937.00;;;;5015227;28;20025;-58
2023/11/22 12:41:54;;;;;;;2.53;2.42;;;21.70;36.30;22.40;102935.00;;;;5030219;28;20029;-53
2023/11/22 12:44:20;;;;;;;4.75;2.05;;;21.70;36.80;22.40;102923.00;;;;5029648;28;20041;-60
2023/11/22 12:46:58;;;;;;;1.13;1.13;;;21.70;36.20;22.40;102931.00;;;;5029548;28;20528;-53
2023/11/22 12:49:25;;;;;;;6.70;1.25;;;21.80;35.80;22.50;102935.00;;;;5039343;28;20378;-59
2023/11/22 12:51:54;;;;;;;1.40;1.33;;;21.80;35.70;22.50;102940.00;;;;5030738;28;20029;-65
2023/11/22 12:54:21;;;;;;;0.75;0.75;;;21.80;35.20;22.50;102937.00;;;;5030749;28;20493;-66
2023/11/22 12:56:50;;;;;;;2.03;0.98;;;21.80;35.20;22.50;102928.00;;;;5030356;28;20108;-63
2023/11/22 12:59:17;;;;;;;2.67;0.90;;;21.80;34.90;22.50;102918.00;;;;5030057;28;20033;-62
2023/11/22 13:01:45;;;;;;;5.32;1.50;;;21.80;34.90;22.50;102919.00;;;;5012800;28;20064;-54
2023/11/22 13:04:15;;;;;;;1.10;1.10;;;21.80;34.90;22.50;102916.00;;;;5031329;28;20061;-62
2023/11/22 13:06:42;;;;;;;3.40;1.80;;;21.80;34.80;22.60;102917.00;;;;5030541;28;20060;-61
2023/11/22 13:09:14;;;;;;;1.52;1.42;;;21.90;34.80;22.60;102912.00;;;;5012632;28;20072;-60
2023/11/22 13:11:45;;;;;;;1.60;1.50;;;21.90;34.70;22.60;102914.00;;;;5030077;28;20025;-52
2023/11/22 13:14:35;;;;;;;1.70;1.60;;;21.90;34.80;22.60;102925.00;;;;5028892;28;20037;-61
2023/11/22 13:17:01;;;;;;;2.97;2.58;;;21.90;35.00;22.60;102925.00;;;;5029177;28;20040;-55
2023/11/22 13:19:27;;;;;;;1.83;0.95;;;21.90;34.90;22.60;102944.00;;;;5030080;28;20029;-66
2023/11/22 13:21:53;;;;;;;4.85;1.02;;;21.90;34.80;22.60;102952.00;;;;5007327;28;20120;-66
2023/11/22 13:24:20;;;;;;;2.05;0.90;;;21.90;34.70;22.70;102945.00;;;;5012472;28;20040;-65
2023/11/22 13:26:46;;;;;;;1.35;1.20;;;21.90;34.60;22.70;102938.00;;;;5030206;28;20108;-63
2023/11/22 13:29:12;;;;;;;1.60;0.90;;;22.00;34.50;22.70;102931.00;;;;5028749;28;20143;-70
2023/11/22 13:31:56;;;;;;;2.75;1.65;;;22.00;34.40;22.70;102918.00;;;;5034635;28;20057;-65
2023/11/22 13:34:22;;;;;;;3.90;1.33;;;22.00;34.40;22.70;102923.00;;;;5029540;28;20052;-61
2023/11/22 13:36:48;;;;;;;2.85;1.02;;;22.10;34.20;22.70;102927.00;;;;5028484;28;20092;-55
2023/11/22 13:39:15;;;;;;;8.00;1.83;;;22.10;34.20;22.70;102938.00;;;;5026011;28;20112;-52
2023/11/22 13:41:40;;;;;;;1.30;1.08;;;22.10;34.20;22.80;102935.00;;;;5008265;28;20083;-62
2023/11/22 13:44:06;;;;;;;1.90;1.23;;;22.10;34.10;22.80;102941.00;;;;5018773;28;20069;-59
2023/11/22 13:46:32;;;;;;;3.55;1.27;;;22.10;34.00;22.80;102940.00;;;;5017295;28;20049;-63
2023/11/22 13:48:59;;;;;;;1.25;0.93;;;22.10;33.90;22.80;102937.00;;;;5020446;28;20037;-64
2023/11/22 13:51:25;;;;;;;1.52;0.95;;;22.20;33.90;22.80;102935.00;;;;5022220;28;20104;-73
2023/11/22 13:53:53;;;;;;;0.90;0.63;;;22.20;33.90;22.80;102932.00;;;;5024420;28;20049;-54
2023/11/22 13:56:20;;;;;;;0.63;0.63;;;22.20;33.70;22.90;102936.00;;;;5019605;28;20041;-52
2023/11/22 13:58:46;;;;;;;0.82;0.80;;;22.20;33.60;22.80;102915.00;;;;5020646;28;20123;-53
2023/11/22 14:01:16;;;;;;;0.85;0.85;;;22.20;33.60;22.80;102909.00;;;;5029457;28;20036;-50
2023/11/22 14:03:42;;;;;;;1.15;0.90;;;22.20;33.60;22.90;102906.00;;;;5021068;28;20103;-51
2023/11/22 14:06:09;;;;;;;2.72;1.05;;;22.20;33.60;22.90;102911.00;;;;5018231;28;20699;-52
2023/11/22 14:08:35;;;;;;;4.13;1.00;;;22.20;33.50;22.90;102908.00;;;;5024998;28;20381;-54
2023/11/22 14:11:01;;;;;;;0.98;0.57;;;22.20;33.60;22.90;102905.00;;;;5023843;28;20124;-55
2023/11/22 14:13:27;;;;;;;3.22;1.02;;;22.20;33.40;22.90;102908.00;;;;5023429;28;20037;-50
2023/11/22 14:15:53;;;;;;;0.90;0.90;;;22.20;33.40;22.80;102899.00;;;;5020793;28;20073;-60
2023/11/22 14:18:19;;;;;;;0.73;0.73;;;22.20;33.20;22.80;102880.00;;;;5028743;28;20124;-58
2023/11/22 14:20:45;;;;;;;2.33;0.68;;;22.20;33.20;22.80;102888.00;;;;5028225;28;20029;-65
2023/11/22 14:23:11;;;;;;;1.20;0.75;;;22.20;33.20;22.70;102895.00;;;;5009604;28;20044;-58
2023/11/22 14:25:37;;;;;;;0.80;0.80;;;22.10;33.10;22.70;102890.00;;;;5024312;28;20080;-61
2023/11/22 14:28:03;;;;;;;0.88;0.88;;;22.10;33.20;22.60;102896.00;;;;5018946;28;20072;-60
2023/11/22 14:30:35;;;;;;;0.90;0.88;;;22.10;33.30;22.60;102891.00;;;;5022384;28;20041;-54
2023/11/22 14:33:06;;;;;;;1.23;1.23;;;22.10;33.40;22.50;102902.00;;;;5026293;28;20485;-65
2023/11/22 14:35:35;;;;;;;2.92;0.93;;;22.00;33.40;22.50;102906.00;;;;5008151;28;20520;-63
2023/11/22 14:38:03;;;;;;;2.35;1.88;;;21.90;33.20;22.40;102910.00;;;;5016238;28;20037;-65
2023/11/22 14:40:31;;;;;;;2.70;1.63;;;21.90;33.20;22.40;102918.00;;;;5020467;28;20045;-65
2023/11/22 14:42:57;;;;;;;0.88;0.88;;;21.80;33.00;22.30;102912.00;;;;5027686;28;20090;-61
2023/11/22 14:45:23;;;;;;;2.50;0.57;;;21.80;33.00;22.20;102914.00;;;;5007661;28;20114;-71
2023/11/22 14:47:51;;;;;;;5.53;0.50;;;21.70;33.00;22.10;102908.00;;;;5012959;28;20617;-66
2023/11/22 14:50:17;;;;;;;0.88;0.40;;;21.70;33.00;22.10;102905.00;;;;5019166;28;20437;-65
2023/11/22 14:52:45;;;;;;;2.85;0.60;;;21.60;33.00;22.00;102905.00;;;;5027781;28;20073;-65
2023/11/22 14:55:12;;;;;;;1.58;0.63;;;21.50;32.90;22.00;102899.00;;;;5031577;28;20087;-65
2023/11/22 14:57:38;;;;;;;1.80;1.23;;;21.50;33.00;22.00;102889.00;;;;5042466;28;20048;-65
2023/11/22 15:00:12;;;;;;;1.25;0.80;;;21.50;33.60;22.00;102877.00;;;;5041019;28;20039;-52
2023/11/22 15:02:38;;;;;;;4.88;0.73;;;21.50;33.10;21.90;102872.00;;;;4999351;28;20047;-51
2023/11/22 15:05:09;;;;;;;1.30;1.20;;;21.40;33.20;21.90;102872.00;;;;5026171;28;20116;-49
2023/11/22 15:07:39;;;;;;;1.95;0.60;;;21.40;33.20;21.90;102884.00;;;;5019843;28;20758;-51
2023/11/22 15:10:05;;;;;;;1.70;1.50;;;21.40;33.30;21.80;102873.00;;;;5022688;28;20120;-50
2023/11/22 15:12:33;;;;;;;1.40;1.23;;;21.30;33.40;21.80;102849.00;;;;5026570;28;20056;-68
2023/11/22 15:14:59;;;;;;;1.63;1.40;;;21.30;34.10;21.80;102859.00;;;;5027675;28;20030;-64
2023/11/22 15:17:25;;;;;;;4.20;1.33;;;21.30;34.70;21.90;102882.00;;;;5027578;28;20028;-66
2023/11/22 15:19:51;;;;;;;0.95;0.95;;;21.30;35.50;21.90;102865.00;;;;5025306;28;20120;-54
2023/11/22 15:22:17;;;;;;;0.80;0.43;;;21.40;36.10;22.10;102869.00;;;;5028104;28;20140;-67
2023/11/22 15:24:44;;;;;;;4.47;0.55;;;21.40;36.50;22.20;102881.00;;;;5028359;28;20065;-68
2023/11/22 15:27:10;;;;;;;3.92;0.77;;;21.50;37.00;22.30;102877.00;;;;5026795;28;20128;-66
2023/11/22 15:29:36;;;;;;;0.40;0.40;;;21.60;37.20;22.50;102887.00;;;;5027442;28;20056;-64
2023/11/22 15:32:02;;;;;;;3.60;0.73;;;21.70;37.60;22.60;102901.00;;;;5023473;28;20092;-67
2023/11/22 15:34:28;;;;;;;1.05;0.77;;;21.70;37.80;22.70;102900.00;;;;5021290;28;20033;-69
2023/11/22 15:36:54;;;;;;;0.50;0.50;;;21.90;37.90;22.80;102903.00;;;;5014479;28;20025;-59
2023/11/22 15:39:22;;;;;;;2.15;0.45;;;21.90;38.00;22.90;102900.00;;;;5025106;28;20021;-62
2023/11/22 15:41:48;;;;;;;0.90;0.63;;;22.00;38.10;23.00;102901.00;;;;5030820;28;20414;-64
2023/11/22 15:44:15;;;;;;;0.50;0.40;;;22.10;38.30;23.10;102909.00;;;;5031496;28;20113;-66
2023/11/22 15:46:41;;;;;;;0.60;0.57;;;22.20;38.40;23.20;102917.00;;;;5017639;28;20033;-64
2023/11/22 15:49:10;;;;;;;0.85;0.80;;;22.30;38.40;23.30;102920.00;;;;5030470;28;20037;-63
2023/11/22 15:51:36;;;;;;;0.52;0.52;;;22.30;38.40;23.30;102918.00;;;;5025226;28;20708;-66
2023/11/22 15:54:03;;;;;;;0.20;0.20;;;22.40;38.50;23.40;102926.00;;;;5020926;28;20434;-46
2023/11/22 15:56:30;;;;;;;0.77;0.50;;;22.50;38.50;23.50;102926.00;;;;5028236;28;20112;-49
2023/11/22 15:58:59;;;;;;;1.65;0.20;;;22.50;38.50;23.50;102919.00;;;;5030152;28;20025;-45
2023/11/22 16:01:27;;;;;;;1.10;0.40;;;22.60;38.60;23.50;102916.00;;;;5030131;28;20025;-46
2023/11/22 16:03:54;;;;;;;0.70;0.60;;;22.60;38.60;23.60;102919.00;;;;5029178;28;20045;-46
2023/11/22 16:06:21;;;;;;;1.23;0.93;;;22.80;38.60;23.60;102917.00;;;;5031409;28;20048;-47
2023/11/22 16:08:47;;;;;;;0.28;0.28;;;22.80;38.60;23.60;102922.00;;;;5026591;28;20033;-46
2023/11/22 16:11:13;;;;;;;0.70;0.60;;;22.80;38.70;23.70;102935.00;;;;5030027;28;20675;-52
2023/11/22 16:13:39;;;;;;;0.38;0.38;;;22.90;38.60;23.70;102935.00;;;;5029217;28;20124;-49
2023/11/22 16:16:06;;;;;;;0.82;0.60;;;22.90;38.60;23.80;102940.00;;;;5025164;28;20044;-47
2023/11/22 16:18:33;;;;;;;0.52;0.30;;;22.90;38.60;23.80;102945.00;;;;5027921;28;20037;-46
2023/11/22 16:20:59;;;;;;;0.47;0.30;;;23.00;38.70;23.80;102939.00;;;;5009335;28;20065;-66
2023/11/22 16:23:25;;;;;;;0.40;0.30;;;23.00;38.70;23.90;102938.00;;;;5030222;28;20117;-51
2023/11/22 16:25:51;;;;;;;0.32;0.32;;;23.10;38.70;23.90;102931.00;;;;5034255;28;20088;-64
2023/11/22 16:28:18;;;;;;;0.30;0.30;;;23.10;38.70;23.90;102929.00;;;;5032523;28;20029;-56
2023/11/22 16:30:44;;;;;;;3.60;1.95;;;23.10;38.80;23.90;102929.00;;;;5031667;28;20076;-63
2023/11/22 16:33:12;;;;;;;0.70;0.38;;;23.20;38.80;23.90;102932.00;;;;5031673;28;20037;-67
2023/11/22 16:35:38;;;;;;;1.23;0.52;;;23.20;38.80;24.00;102944.00;;;;5033043;28;20051;-66
2023/11/22 16:38:05;;;;;;;1.02;1.00;;;23.20;38.90;24.00;102948.00;;;;5032978;28;20071;-64
2023/11/22 16:40:32;;;;;;;1.30;0.60;;;23.30;39.00;24.00;102947.00;;;;5024130;28;20079;-53
2023/11/22 16:42:58;;;;;;;3.13;0.73;;;23.30;39.00;24.00;102951.00;;;;5025022;28;20489;-52
2023/11/22 16:45:25;;;;;;;0.57;0.50;;;23.30;39.00;24.00;102970.00;;;;5016654;28;20033;-53
2023/11/22 16:47:54;;;;;;;0.50;0.50;;;23.30;39.00;24.00;102985.00;;;;5025734;28;20037;-52
2023/11/22 16:50:21;;;;;;;0.77;0.50;;;23.30;39.00;24.00;102977.00;;;;5029547;28;20462;-53
2023/11/22 16:52:47;;;;;;;1.17;0.80;;;23.40;39.10;24.10;102979.00;;;;5026897;28;20053;-52
2023/11/22 16:55:13;;;;;;;1.77;0.80;;;23.40;39.20;24.10;102986.00;;;;5029220;28;20878;-52
2023/11/22 16:57:39;;;;;;;0.85;0.85;;;23.40;39.10;24.00;102981.00;;;;5008307;28;20048;-52
2023/11/22 17:00:17;;;;;;;0.80;0.80;;;23.40;39.10;24.00;102983.00;;;;5029845;28;20083;-56
2023/11/22 17:02:49;;;;;;;3.50;0.70;;;23.40;39.10;24.10;102987.00;;;;5029772;28;20037;-61
2023/11/22 17:05:19;;;;;;;0.52;0.50;;;23.40;39.00;24.10;102996.00;;;;5011318;28;20768;-65
2023/11/22 17:07:45;;;;;;;2.33;0.70;;;23.40;39.10;24.10;102991.00;;;;5029335;28;20029;-57
2023/11/22 17:10:15;;;;;;;0.95;0.70;;;23.50;39.30;24.10;102995.00;;;;5028059;28;20116;-56
2023/11/22 17:12:41;;;;;;;1.13;0.73;;;23.50;39.20;24.10;102995.00;;;;5028738;28;20040;-52
2023/11/22 17:15:07;;;;;;;2.90;1.13;;;23.50;39.20;24.10;102990.00;;;;5027000;28;20033;-56
2023/11/22 17:17:34;;;;;;;4.60;0.80;;;23.50;39.20;24.10;102982.00;;;;5028491;28;20157;-50
2023/11/22 17:20:04;;;;;;;0.80;0.68;;;23.50;39.40;24.10;102974.00;;;;5015397;28;20030;-64
2023/11/22 17:22:30;;;;;;;2.10;0.70;;;23.50;39.20;24.10;102970.00;;;;5029683;28;20029;-64
2023/11/22 17:24:58;;;;;;;2.40;1.02;;;23.50;39.10;24.10;102966.00;;;;5029147;28;20037;-54
2023/11/22 17:27:24;;;;;;;0.88;0.70;;;23.50;39.20;24.10;102966.00;;;;5014153;28;20033;-63
2023/11/22 17:29:51;;;;;;;1.38;0.50;;;23.50;39.20;24.10;102962.00;;;;5030171;28;20029;-55
2023/11/22 17:32:17;;;;;;;2.00;0.43;;;23.50;39.20;24.10;102954.00;;;;5028241;28;20041;-63
2023/11/22 17:34:43;;;;;;;0.70;0.70;;;23.50;39.20;24.10;102951.00;;;;5022711;28;20080;-67
2023/11/22 17:37:09;;;;;;;0.77;0.70;;;23.50;39.10;24.10;102959.00;;;;5026856;28;20730;-61
2023/11/22 17:39:35;;;;;;;1.17;0.75;;;23.50;39.20;24.10;102955.00;;;;5022725;28;20029;-65
2023/11/22 17:42:01;;;;;;;1.17;1.00;;;23.50;39.30;24.10;102954.00;;;;5028749;28;20045;-55
2023/11/22 17:44:27;;;;;;;1.33;1.23;;;23.50;39.20;24.10;102953.00;;;;5024652;28;20124;-65
2023/11/22 17:46:53;;;;;;;0.60;0.60;;;23.50;39.20;24.10;102948.00;;;;5011691;28;20179;-59
2023/11/22 17:49:20;;;;;;;0.98;0.50;;;23.50;39.20;24.10;102958.00;;;;5028808;28;20053;-53
2023/11/22 17:51:53;;;;;;;0.95;0.77;;;23.50;39.40;24.10;102957.00;;;;5028633;28;20022;-67
2023/11/22 17:54:22;;;;;;;0.60;0.60;;;23.50;39.30;24.10;102938.00;;;;5029369;28;20447;-60
2023/11/22 17:56:48;;;;;;;3.40;1.00;;;23.60;39.40;24.10;102930.00;;;;5004502;28;20036;-65
2023/11/22 17:59:15;;;;;;;0.93;0.93;;;23.60;39.40;24.10;102920.00;;;;4994869;28;20033;-56
2023/11/22 18:01:42;;;;;;;0.98;0.98;;;23.50;39.30;24.10;102933.00;;;;5027462;28;20120;-65
2023/11/22 18:04:08;;;;;;;1.00;1.00;;;23.50;39.30;24.10;102936.00;;;;5026778;28;20531;-63
2023/11/22 18:06:35;;;;;;;1.77;1.67;;;23.60;39.30;24.10;102941.00;;;;5028974;28;20044;-60
2023/11/22 18:09:01;;;;;;;1.58;0.85;;;23.50;39.20;24.10;102952.00;;;;5024353;28;20516;-65
2023/11/22 18:11:27;;;;;;;1.05;1.00;;;23.50;39.30;24.10;102959.00;;;;5026262;28;20033;-65
2023/11/22 18:13:55;;;;;;;0.82;0.82;;;23.50;39.30;24.10;102957.00;;;;5010991;28;20033;-50
2023/11/22 18:16:22;;;;;;;0.90;0.90;;;23.60;39.40;24.10;102963.00;;;;5024203;28;20026;-60
2023/11/22 18:18:47;;;;;;;0.90;0.70;;;23.60;39.40;24.10;102967.00;;;;5019347;28;20052;-63
2023/11/22 18:21:13;;;;;;;1.58;1.40;;;23.60;39.40;24.10;102974.00;;;;4994379;28;20088;-55
2023/11/22 18:23:43;;;;;;;0.68;0.68;;;23.60;39.40;24.10;102992.00;;;;5027397;28;20489;-59
2023/11/22 18:26:12;;;;;;;0.90;0.90;;;23.60;39.50;24.20;102998.00;;;;5027571;28;20045;-62
2023/11/22 18:28:39;;;;;;;1.85;1.25;;;23.60;39.40;24.10;102999.00;;;;5015124;28;20042;-61
2023/11/22 18:31:06;;;;;;;0.98;0.88;;;23.60;39.40;24.20;103001.00;;;;5028747;28;20065;-55
2023/11/22 18:33:33;;;;;;;2.80;0.65;;;23.60;39.40;24.20;102999.00;;;;4998928;28;20112;-64
2023/11/22 18:36:00;;;;;;;1.50;1.40;;;23.60;39.50;24.20;102994.00;;;;5028929;28;20717;-66
2023/11/22 18:38:27;;;;;;;1.27;1.17;;;23.60;39.50;24.20;102994.00;;;;5017237;28;20047;-64
2023/11/22 18:40:53;;;;;;;1.15;0.70;;;23.60;39.50;24.20;102992.00;;;;5027398;28;20429;-70
2023/11/22 18:43:19;;;;;;;1.73;0.80;;;23.60;39.60;24.20;102987.00;;;;5026404;28;20148;-72
2023/11/22 18:45:48;;;;;;;0.70;0.70;;;23.60;39.50;24.20;102979.00;;;;5021367;28;20060;-69
2023/11/22 18:48:15;;;;;;;1.52;0.80;;;23.60;39.60;24.20;102983.00;;;;5011639;28;20072;-51
2023/11/22 18:50:41;;;;;;;1.23;0.90;;;23.60;39.60;24.20;102987.00;;;;5003500;28;20459;-52
2023/11/22 18:53:07;;;;;;;1.35;1.25;;;23.60;39.60;24.20;102983.00;;;;5007400;28;20453;-48
2023/11/22 18:55:33;;;;;;;1.20;1.10;;;23.60;39.60;24.20;102985.00;;;;5022070;28;20034;-53
2023/11/22 18:57:59;;;;;;;1.33;1.27;;;23.60;39.70;24.20;102984.00;;;;5023739;28;20505;-46
2023/11/22 19:00:25;;;;;;;2.20;2.00;;;23.60;39.70;24.20;102988.00;;;;5024969;28;20040;-55
2023/11/22 19:02:51;;;;;;;1.70;1.27;;;23.60;39.70;24.20;102989.00;;;;5025269;28;20033;-61
2023/11/22 19:05:17;;;;;;;1.25;1.13;;;23.60;39.60;24.20;102967.00;;;;5016872;28;20048;-57
2023/11/22 19:07:45;;;;;;;1.33;1.23;;;23.60;39.70;24.20;102971.00;;;;5027826;28;20037;-48
2023/11/22 19:10:11;;;;;;;1.23;1.20;;;23.60;39.70;24.20;102973.00;;;;5028418;28;20064;-49
2023/11/22 19:12:37;;;;;;;1.70;1.60;;;23.60;39.70;24.20;102965.00;;;;5028322;28;20494;-53
2023/11/22 19:15:08;;;;;;;1.23;1.20;;;23.60;39.70;24.20;102979.00;;;;5028468;28;20788;-54
2023/11/22 19:17:34;;;;;;;1.15;1.15;;;23.60;39.60;24.20;102987.00;;;;5032126;28;20057;-61
2023/11/22 19:20:00;;;;;;;1.95;1.45;;;23.60;39.70;24.20;102984.00;;;;5031482;28;20047;-63
2023/11/22 19:22:26;;;;;;;4.88;1.67;;;23.60;39.70;24.20;102986.00;;;;5024135;28;20378;-64
2023/11/22 19:24:52;;;;;;;2.80;1.80;;;23.60;39.80;24.20;102978.00;;;;5015808;28;20118;-68
2023/11/22 19:27:18;;;;;;;3.10;2.42;;;23.70;40.00;24.30;102979.00;;;;5014417;28;20744;-61
2023/11/22 19:29:45;;;;;;;2.38;2.05;;;23.60;39.70;24.20;102987.00;;;;5031827;28;20040;-57
2023/11/22 19:32:15;;;;;;;2.63;1.95;;;23.70;39.80;24.20;102987.00;;;;5031556;28;20049;-66
2023/11/22 19:34:41;;;;;;;2.83;2.63;;;23.60;39.70;24.20;102985.00;;;;5031874;28;20059;-52
2023/11/22 19:37:07;;;;;;;2.72;2.60;;;23.60;39.70;24.20;102987.00;;;;5028812;28;20029;-52
2023/11/22 19:39:33;;;;;;;2.50;1.85;;;23.70;39.80;24.20;102976.00;;;;5029293;28;20032;-66
2023/11/22 19:41:59;;;;;;;2.78;2.28;;;23.70;39.80;24.20;102988.00;;;;5031848;28;20041;-58
2023/11/22 19:44:25;;;;;;;1.80;1.70;;;23.60;39.70;24.20;102992.00;;;;5012246;28;20038;-49
2023/11/22 19:46:51;;;;;;;2.00;1.90;;;23.60;39.70;24.20;102990.00;;;;5030946;28;20037;-46
2023/11/22 19:49:17;;;;;;;2.40;2.20;;;23.70;39.80;24.20;102982.00;;;;5009313;28;20108;-48
2023/11/22 19:51:43;;;;;;;2.22;2.13;;;23.60;39.80;24.20;102987.00;;;;5030090;28;20044;-49
2023/11/22 19:54:10;;;;;;;2.17;2.08;;;23.70;39.80;24.20;102987.00;;;;5030789;28;20045;-49
2023/11/22 19:56:37;;;;;;;2.10;1.98;;;23.70;39.80;24.20;102983.00;;;;5030360;28;20077;-50
2023/11/22 19:59:02;;;;;;;3.90;3.15;;;23.70;39.90;24.20;102987.00;;;;5029852;28;20034;-50
2023/11/22 20:01:29;;;;;;;6.82;2.33;;;23.70;39.90;24.20;102979.00;;;;5013853;28;20080;-59
2023/11/22 20:03:55;;;;;;;2.35;1.65;;;23.70;39.80;24.20;102987.00;;;;5031189;28;20029;-55
2023/11/22 20:06:26;;;;;;;2.80;2.55;;;23.70;39.90;24.30;102987.00;;;;5019699;28;20052;-60
2023/11/22 20:08:52;;;;;;;2.75;2.55;;;23.70;39.80;24.30;102990.00;;;;5025492;28;20402;-52
2023/11/22 20:11:18;;;;;;;2.15;1.95;;;23.70;39.80;24.30;102987.00;;;;5028314;28;20501;-54
2023/11/22 20:13:44;;;;;;;5.32;2.47;;;23.70;39.80;24.30;102999.00;;;;5030809;28;20060;-58
2023/11/22 20:16:10;;;;;;;1.55;1.45;;;23.70;39.80;24.30;102994.00;;;;5030123;28;20037;-54
2023/11/22 20:18:36;;;;;;;1.63;1.55;;;23.70;40.40;24.30;102999.00;;;;5007039;28;20508;-49
2023/11/22 20:21:02;;;;;;;2.20;1.92;;;23.70;39.80;24.30;102999.00;;;;5008801;28;20426;-54
2023/11/22 20:23:28;;;;;;;2.22;1.25;;;23.70;39.80;24.30;102995.00;;;;5020451;28;20044;-67
2023/11/22 20:25:55;;;;;;;2.45;2.25;;;23.70;39.80;24.30;102989.00;;;;5028465;28;20045;-51
2023/11/22 20:28:21;;;;;;;2.28;2.17;;;23.70;39.90;24.30;102995.00;;;;5030501;28;20131;-60
2023/11/22 20:30:48;;;;;;;2.00;1.90;;;23.70;39.80;24.30;102988.00;;;;5030632;28;20026;-66
2023/11/22 20:33:14;;;;;;;2.60;2.40;;;23.70;39.80;24.30;102990.00;;;;5025557;28;20045;-60
2023/11/22 20:35:40;;;;;;;3.55;2.92;;;23.70;39.90;24.30;102991.00;;;;5029102;28;20084;-65
2023/11/22 20:38:06;;;;;;;3.33;2.20;;;23.70;39.90;24.30;102993.00;;;;5021771;28;20553;-59
2023/11/22 20:40:31;;;;;;;3.28;2.70;;;23.70;39.80;24.30;102995.00;;;;5029143;28;20124;-67
2023/11/22 20:42:58;;;;;;;6.85;3.40;;;23.70;39.80;24.30;102994.00;;;;5032233;28;20033;-64
2023/11/22 20:45:24;;;;;;;3.13;2.55;;;23.70;39.80;24.30;102990.00;;;;5022387;28;20092;-65
2023/11/22 20:47:50;;;;;;;3.00;2.80;;;23.70;39.90;24.30;102987.00;;;;5030900;28;20470;-56
2023/11/22 20:50:16;;;;;;;2.75;2.55;;;23.70;39.80;24.30;102987.00;;;;5021965;28;20112;-53
2023/11/22 20:52:42;;;;;;;3.20;2.90;;;23.70;40.40;24.30;102990.00;;;;5031031;28;20041;-64
2023/11/22 20:55:08;;;;;;;2.72;2.50;;;23.70;39.80;24.30;102985.00;;;;5027134;28;20744;-52
2023/11/22 20:57:37;;;;;;;3.13;2.85;;;23.70;39.90;24.30;102987.00;;;;5029402;28;20037;-53
2023/11/22 21:00:11;;;;;;;3.78;3.13;;;23.70;39.90;24.30;102994.00;;;;5030794;28;20100;-51
2023/11/22 21:02:37;;;;;;;3.53;3.22;;;23.70;39.80;24.30;102983.00;;;;5015207;28;20030;-51
2023/11/22 21:05:05;;;;;;;4.53;2.60;;;23.70;39.80;24.40;103006.00;;;;5021251;28;20037;-50
2023/11/22 21:07:31;;;;;;;1.65;1.55;;;23.80;39.90;24.40;103004.00;;;;5017237;28;20049;-51
2023/11/22 21:09:57;;;;;;;3.90;1.83;;;23.70;39.80;24.40;103002.00;;;;5017239;28;20056;-53
2023/11/22 21:12:23;;;;;;;5.32;3.63;;;23.70;39.80;24.40;102985.00;;;;5015151;28;20038;-52
2023/11/22 21:14:49;;;;;;;2.97;2.78;;;23.70;39.70;24.40;102981.00;;;;5017426;28;20120;-48
2023/11/22 21:17:16;;;;;;;3.25;2.50;;;23.70;39.80;24.30;102975.00;;;;5013669;28;20120;-52
2023/11/22 21:19:48;;;;;;;4.45;3.13;;;23.70;39.70;24.20;102976.00;;;;5013275;28;20037;-49
2023/11/22 21:22:14;;;;;;;3.10;2.90;;;23.60;39.70;24.00;102968.00;;;;5015284;28;20401;-52
2023/11/22 21:24:40;;;;;;;3.15;2.55;;;23.50;39.90;23.90;102964.00;;;;5014552;28;20474;-49
2023/11/22 21:27:06;;;;;;;4.63;3.17;;;23.40;39.90;23.70;102961.00;;;;5016426;28;20047;-53
2023/11/22 21:29:32;;;;;;;2.80;2.47;;;23.30;40.10;23.60;102971.00;;;;5015549;28;20061;-48
2023/11/22 21:31:58;;;;;;;3.65;2.72;;;23.30;40.30;23.50;102966.00;;;;5017371;28;20035;-53
2023/11/22 21:34:25;;;;;;;3.22;2.42;;;23.10;40.30;23.40;102970.00;;;;5015852;28;20144;-52
2023/11/22 21:36:52;;;;;;;4.53;2.00;;;23.10;40.50;23.30;102964.00;;;;5015572;28;20040;-50
2023/11/22 21:39:21;;;;;;;2.22;2.05;;;22.90;40.60;23.30;102968.00;;;;5015592;28;20044;-49
2023/11/22 21:41:54;;;;;;;2.58;2.15;;;22.90;40.80;23.20;102969.00;;;;5017337;28;20041;-49